createdAt,value
2019-05-29T00:02:05.965Z,93622.80
2019-05-29T00:04:34.645Z,93617.60
2019-05-29T00:07:03.259Z,93621.77
2019-05-29T00:09:31.652Z,93628.03
2019-05-29T00:12:00.033Z,93627.48
2019-05-29T00:14:28.433Z,93627.24
2019-05-29T00:16:56.797Z,93625.91
2019-05-29T00:19:25.461Z,93632.20
2019-05-29T00:21:54.056Z,93626.23
2019-05-29T00:24:23.254Z,93629.14
2019-05-29T00:26:51.655Z,93632.80
2019-05-29T00:29:22.717Z,93633.58
2019-05-29T00:31:51.178Z,93636.97
2019-05-29T00:34:19.576Z,93632.52
2019-05-29T00:36:47.952Z,93635.11
2019-05-29T00:39:16.872Z,93634.38
2019-05-29T00:41:45.638Z,93641.42
2019-05-29T00:44:15.305Z,93641.67
2019-05-29T00:46:43.781Z,93642.48
2019-05-29T00:49:12.178Z,93642.00
2019-05-29T00:51:40.569Z,93645.67
2019-05-29T00:54:10.235Z,93651.17
2019-05-29T00:56:38.879Z,93652.72
2019-05-29T00:59:07.548Z,93656.56
2019-05-29T01:01:35.926Z,93658.36
2019-05-29T01:04:04.396Z,93662.83
2019-05-29T01:06:32.784Z,93662.73
2019-05-29T01:09:01.169Z,93662.27
2019-05-29T01:11:29.791Z,93658.34
2019-05-29T01:13:58.439Z,93659.97
2019-05-29T01:16:26.816Z,93661.33
2019-05-29T01:18:57.104Z,93660.05
2019-05-29T01:21:25.862Z,93657.57
2019-05-29T01:23:54.240Z,93659.20
2019-05-29T01:26:22.903Z,93661.22
2019-05-29T01:28:51.299Z,93662.50
2019-05-29T01:31:19.920Z,93664.94
2019-05-29T01:33:48.299Z,93659.95
2019-05-29T01:36:17.940Z,93664.12
2019-05-29T01:38:46.353Z,93661.88
2019-05-29T01:41:15.102Z,93664.16
2019-05-29T01:43:43.521Z,93664.48
2019-05-29T01:46:11.907Z,93667.37
2019-05-29T01:48:40.290Z,93664.81
2019-05-29T01:51:08.680Z,93673.47
2019-05-29T01:53:37.307Z,93673.69
2019-05-29T01:56:05.955Z,93670.55
2019-05-29T01:58:34.599Z,93674.73
2019-05-29T02:01:02.995Z,93680.99
2019-05-29T02:03:31.620Z,93680.22
2019-05-29T02:06:00.008Z,93684.14
2019-05-29T02:08:28.399Z,93679.41
2019-05-29T02:10:56.779Z,93680.16
2019-05-29T02:13:25.162Z,93688.73
2019-05-29T02:15:53.563Z,93688.76
2019-05-29T02:18:22.963Z,93682.73
2019-05-29T02:20:51.651Z,93686.94
2019-05-29T02:23:20.048Z,93686.95
2019-05-29T02:25:48.424Z,93685.12
2019-05-29T02:28:16.802Z,93688.47
2019-05-29T02:30:45.195Z,93694.28
2019-05-29T02:33:13.650Z,93695.50
2019-05-29T02:35:42.323Z,93692.16
2019-05-29T02:38:10.704Z,93695.00
2019-05-29T02:40:39.102Z,93691.59
2019-05-29T02:43:07.481Z,93694.97
2019-05-29T02:45:53.182Z,93697.83
2019-05-29T02:48:06.310Z,93699.72
2019-05-29T02:50:34.713Z,93703.06
2019-05-29T02:53:03.097Z,93709.11
2019-05-29T02:55:31.498Z,93713.79
2019-05-29T02:58:00.117Z,93713.25
2019-05-29T03:00:43.757Z,93713.79
2019-05-29T03:03:12.146Z,93713.77
2019-05-29T03:05:40.537Z,93711.98
2019-05-29T03:08:09.176Z,93722.72
2019-05-29T03:10:37.569Z,93720.34
2019-05-29T03:13:06.034Z,93721.05
2019-05-29T03:15:34.661Z,93719.23
2019-05-29T03:18:03.062Z,93725.52
2019-05-29T03:20:32.394Z,93730.52
2019-05-29T03:23:00.822Z,93733.68
2019-05-29T03:25:30.603Z,93736.02
2019-05-29T03:27:59.031Z,93738.61
2019-05-29T03:30:30.676Z,93744.63
2019-05-29T03:32:57.789Z,93740.98
2019-05-29T03:35:28.198Z,93748.55
2019-05-29T03:37:58.745Z,93747.23
2019-05-29T03:40:26.708Z,93751.91
2019-05-29T03:42:56.739Z,93756.27
2019-05-29T03:45:26.697Z,93758.64
2019-05-29T03:47:55.236Z,93762.61
2019-05-29T03:50:23.872Z,93761.83
2019-05-29T03:52:52.300Z,93765.52
2019-05-29T03:55:20.669Z,93766.55
2019-05-29T03:57:49.067Z,93765.98
2019-05-29T04:00:17.937Z,93773.53
2019-05-29T04:02:46.332Z,93775.09
2019-05-29T04:05:16.053Z,93779.78
2019-05-29T04:07:44.457Z,93777.15
2019-05-29T04:10:13.066Z,93784.98
2019-05-29T04:12:41.466Z,93781.86
2019-05-29T04:15:10.170Z,93784.72
2019-05-29T04:17:39.823Z,93785.22
2019-05-29T04:20:09.291Z,93792.51
2019-05-29T04:22:45.138Z,93790.70
2019-05-29T04:25:14.359Z,93798.00
2019-05-29T04:27:43.500Z,93801.89
2019-05-29T04:30:13.695Z,93802.41
2019-05-29T04:32:42.093Z,93798.20
2019-05-29T04:35:10.887Z,93802.09
2019-05-29T04:37:40.070Z,93799.25
2019-05-29T04:40:09.660Z,93807.34
2019-05-29T04:42:39.928Z,93804.47
2019-05-29T04:45:08.604Z,93816.44
2019-05-29T04:47:37.495Z,93816.17
2019-05-29T04:50:07.265Z,93817.75
2019-05-29T04:52:37.655Z,93827.63
2019-05-29T04:55:06.144Z,93826.05
2019-05-29T04:57:35.015Z,93827.58
2019-05-29T05:00:04.182Z,93836.96
2019-05-29T05:02:33.051Z,93831.75
2019-05-29T05:05:01.448Z,93837.19
2019-05-29T05:07:31.091Z,93841.61
2019-05-29T05:09:59.469Z,93844.52
2019-05-29T05:12:29.490Z,93849.13
2019-05-29T05:14:58.382Z,93846.52
2019-05-29T05:17:27.122Z,93856.10
2019-05-29T05:19:55.517Z,93858.97
2019-05-29T05:22:23.899Z,93861.38
2019-05-29T05:24:52.302Z,93868.45
2019-05-29T05:27:20.683Z,93866.86
2019-05-29T05:29:49.335Z,93870.28
2019-05-29T05:32:17.969Z,93866.11
2019-05-29T05:34:46.644Z,93871.84
2019-05-29T05:37:15.284Z,93870.05
2019-05-29T05:39:43.688Z,93877.86
2019-05-29T05:42:12.081Z,93879.94
2019-05-29T05:44:41.156Z,93874.93
2019-05-29T05:47:09.541Z,93886.19
2019-05-29T05:49:39.419Z,93880.91
2019-05-29T05:52:08.111Z,93883.72
2019-05-29T05:54:37.526Z,93892.10
2019-05-29T05:57:06.232Z,93888.86
2019-05-29T05:59:35.743Z,93897.97
2019-05-29T06:02:04.215Z,93894.52
2019-05-29T06:04:33.803Z,93888.35
2019-05-29T06:07:02.464Z,93889.73
2019-05-29T06:09:32.679Z,93898.21
2019-05-29T06:12:01.335Z,93901.56
2019-05-29T06:14:29.745Z,93902.38
2019-05-29T06:16:58.142Z,93896.09
2019-05-29T06:19:26.566Z,93896.52
2019-05-29T06:21:54.956Z,93900.38
2019-05-29T06:24:23.363Z,93904.36
2019-05-29T06:26:51.998Z,93907.83
2019-05-29T06:29:20.650Z,93913.09
2019-05-29T06:31:49.043Z,93918.36
2019-05-29T06:34:17.458Z,93917.95
2019-05-29T06:36:48.107Z,93913.72
2019-05-29T06:39:16.239Z,93923.70
2019-05-29T06:41:44.733Z,93922.25
2019-05-29T06:44:13.368Z,93920.72
2019-05-29T06:46:42.576Z,93932.79
2019-05-29T06:49:11.286Z,93930.15
2019-05-29T06:51:39.681Z,93935.98
2019-05-29T06:54:08.136Z,93935.50
2019-05-29T06:56:37.621Z,93943.29
2019-05-29T06:59:06.092Z,93947.39
2019-05-29T07:01:35.234Z,93950.50
2019-05-29T07:04:11.862Z,93948.95
2019-05-29T07:06:34.295Z,93956.52
2019-05-29T07:09:02.763Z,93963.66
2019-05-29T07:11:31.168Z,93966.16
2019-05-29T07:13:59.556Z,93966.92
2019-05-29T07:16:43.258Z,93971.35
2019-05-29T07:21:28.472Z,93973.20
2019-05-29T07:23:56.860Z,93973.29
2019-05-29T07:26:25.510Z,93978.28
2019-05-29T07:29:06.516Z,93977.38
2019-05-29T07:31:24.037Z,93981.67
2019-05-29T07:33:52.682Z,93978.84
2019-05-29T07:36:21.089Z,93984.91
2019-05-29T07:38:57.774Z,93981.46
2019-05-29T07:41:19.612Z,93985.03
2019-05-29T07:43:48.170Z,93991.58
2019-05-29T07:46:16.587Z,93986.55
2019-05-29T07:48:46.388Z,93985.41
2019-05-29T07:51:15.817Z,93983.52
2019-05-29T07:53:44.495Z,93986.42
2019-05-29T07:56:22.026Z,93983.99
2019-05-29T07:58:49.131Z,93994.85
2019-05-29T08:01:14.054Z,93989.45
2019-05-29T08:03:43.491Z,93992.69
2019-05-29T08:06:12.012Z,93993.04
2019-05-29T08:08:41.205Z,93993.38
2019-05-29T08:11:09.825Z,93999.32
2019-05-29T08:13:39.476Z,93998.56
2019-05-29T08:16:08.116Z,94002.50
2019-05-29T08:18:36.549Z,93996.64
2019-05-29T08:21:05.150Z,93998.25
2019-05-29T08:23:33.540Z,93999.90
2019-05-29T08:26:01.946Z,94002.98
2019-05-29T08:28:30.346Z,94003.23
2019-05-29T08:30:58.756Z,94003.90
2019-05-29T08:33:27.138Z,94009.25
2019-05-29T08:36:00.102Z,94008.30
2019-05-29T08:38:26.140Z,94012.09
2019-05-29T08:40:54.538Z,94017.98
2019-05-29T08:43:22.942Z,94015.83
2019-05-29T08:45:52.633Z,94014.61
2019-05-29T08:48:21.158Z,94019.11
2019-05-29T08:50:49.985Z,94018.95
2019-05-29T08:53:18.630Z,94019.20
2019-05-29T08:55:48.402Z,94016.81
2019-05-29T08:58:17.425Z,94021.22
2019-05-29T09:00:49.893Z,94021.77
2019-05-29T09:03:15.952Z,94026.92
2019-05-29T09:05:44.584Z,94029.16
2019-05-29T09:08:13.018Z,94029.56
2019-05-29T09:10:41.397Z,94032.34
2019-05-29T09:13:09.801Z,94029.59
2019-05-29T09:15:38.429Z,94032.00
2019-05-29T09:18:06.825Z,94037.97
2019-05-29T09:21:00.082Z,94037.16
2019-05-29T09:23:05.336Z,94034.22
2019-05-29T09:25:33.969Z,94031.29
2019-05-29T09:28:04.121Z,94032.77
2019-05-29T09:30:32.744Z,94035.25
2019-05-29T09:33:01.146Z,94029.19
2019-05-29T09:35:29.788Z,94038.53
2019-05-29T09:37:58.433Z,94035.72
2019-05-29T09:40:26.817Z,94037.41
2019-05-29T09:42:55.215Z,94036.39
2019-05-29T09:45:23.853Z,94039.56
2019-05-29T09:47:52.248Z,94033.98
2019-05-29T09:50:23.229Z,94040.14
2019-05-29T09:52:51.241Z,94032.96
2019-05-29T09:55:19.688Z,94044.83
2019-05-29T09:57:48.096Z,94039.64
2019-05-29T10:00:17.212Z,94039.33
2019-05-29T10:02:45.897Z,94044.77
2019-05-29T10:05:14.423Z,94049.92
2019-05-29T10:07:42.818Z,94047.54
2019-05-29T10:10:13.148Z,94057.31
2019-05-29T10:12:41.620Z,94063.77
2019-05-29T10:15:12.190Z,94058.23
2019-05-29T10:17:40.594Z,94057.30
2019-05-29T10:20:10.707Z,94064.69
2019-05-29T10:22:39.342Z,94056.87
2019-05-29T10:25:08.475Z,94059.98
2019-05-29T10:27:36.884Z,94065.63
2019-05-29T10:30:06.603Z,94063.64
2019-05-29T10:32:35.070Z,94066.50
2019-05-29T10:35:03.925Z,94063.90
2019-05-29T10:37:32.327Z,94064.89
2019-05-29T10:40:00.974Z,94071.83
2019-05-29T10:42:29.632Z,94068.97
2019-05-29T10:44:58.086Z,94069.08
2019-05-29T10:47:26.466Z,94061.69
2019-05-29T10:49:54.858Z,94061.88
2019-05-29T10:52:23.242Z,94060.02
2019-05-29T10:54:52.433Z,94061.75
2019-05-29T10:57:20.901Z,94062.59
2019-05-29T10:59:49.286Z,94066.34
2019-05-29T11:02:17.929Z,94063.78
2019-05-29T11:04:50.394Z,94060.86
2019-05-29T11:07:16.518Z,94059.09
2019-05-29T11:09:46.680Z,94055.55
2019-05-29T11:12:15.434Z,94058.27
2019-05-29T11:14:43.851Z,94052.16
2019-05-29T11:17:12.221Z,94055.48
2019-05-29T11:19:40.673Z,94053.17
2019-05-29T11:22:25.108Z,94054.23
2019-05-29T11:24:39.263Z,94054.00
2019-05-29T11:27:07.656Z,94052.17
2019-05-29T11:29:36.066Z,94056.30
2019-05-29T11:32:04.524Z,94063.78
2019-05-29T11:34:32.918Z,94059.19
2019-05-29T11:37:02.421Z,94066.57
2019-05-29T11:39:31.135Z,94074.91
2019-05-29T11:41:59.527Z,94073.66
2019-05-29T11:44:27.923Z,94068.35
2019-05-29T11:46:56.566Z,94073.44
2019-05-29T11:49:25.209Z,94075.55
2019-05-29T11:51:55.337Z,94078.39
2019-05-29T11:54:23.715Z,94076.39
2019-05-29T11:56:53.712Z,94076.85
2019-05-29T11:59:22.326Z,94078.78
2019-05-29T12:01:52.506Z,94076.39
2019-05-29T12:04:26.338Z,94080.66
2019-05-29T12:06:51.275Z,94075.30
2019-05-29T12:09:32.253Z,94080.48
2019-05-29T12:11:49.828Z,94079.59
2019-05-29T12:14:18.652Z,94073.83
2019-05-29T12:16:47.040Z,94080.14
2019-05-29T12:19:15.674Z,94083.61
2019-05-29T12:21:44.355Z,94079.48
2019-05-29T12:24:13.000Z,94090.99
2019-05-29T12:26:41.709Z,94091.62
2019-05-29T12:29:11.831Z,94092.34
2019-05-29T12:31:40.754Z,94107.52
2019-05-29T12:34:18.742Z,94109.08
2019-05-29T12:36:39.504Z,94112.78
2019-05-29T12:39:08.786Z,94115.27
2019-05-29T12:41:37.208Z,94110.48
2019-05-29T12:44:05.913Z,94110.06
2019-05-29T12:46:34.297Z,94111.38
2019-05-29T12:49:03.767Z,94114.78
2019-05-29T12:51:32.184Z,94108.02
2019-05-29T12:54:02.163Z,94108.28
2019-05-29T12:56:30.699Z,94110.61
2019-05-29T12:59:00.415Z,94108.98
2019-05-29T13:01:29.213Z,94115.95
2019-05-29T13:04:00.457Z,94123.06
2019-05-29T13:06:28.104Z,94127.51
2019-05-29T13:08:56.736Z,94136.56
2019-05-29T13:11:25.123Z,94137.44
2019-05-29T13:13:54.330Z,94139.87
2019-05-29T13:16:22.809Z,94147.50
2019-05-29T13:18:51.436Z,94148.98
2019-05-29T13:21:20.078Z,94154.46
2019-05-29T13:23:48.738Z,94157.55
2019-05-29T13:26:17.122Z,94159.62
2019-05-29T13:28:45.523Z,94164.33
2019-05-29T13:31:14.157Z,94162.85
2019-05-29T13:33:42.560Z,94166.77
2019-05-29T13:36:10.949Z,94176.97
2019-05-29T13:38:39.886Z,94177.16
2019-05-29T13:41:08.315Z,94180.19
2019-05-29T13:43:36.962Z,94176.16
2019-05-29T13:46:05.432Z,94179.22
2019-05-29T13:48:33.824Z,94176.34
2019-05-29T13:51:03.668Z,94185.34
2019-05-29T13:53:32.095Z,94177.50
2019-05-29T13:56:01.773Z,94178.31
2019-05-29T13:58:30.513Z,94183.31
2019-05-29T14:01:00.790Z,94180.23
2019-05-29T14:03:29.280Z,94178.92
2019-05-29T14:05:58.680Z,94184.42
2019-05-29T14:08:27.076Z,94177.86
2019-05-29T14:10:55.712Z,94183.67
2019-05-29T14:13:24.543Z,94178.11
2019-05-29T14:15:53.203Z,94178.35
2019-05-29T14:18:21.604Z,94178.31
2019-05-29T14:20:50.021Z,94179.84
2019-05-29T14:23:18.412Z,94186.84
2019-05-29T14:25:46.825Z,94192.30
2019-05-29T14:28:15.542Z,94191.70
2019-05-29T14:30:44.179Z,94193.70
2019-05-29T14:33:15.126Z,94194.19
2019-05-29T14:35:43.235Z,94200.14
2019-05-29T14:38:14.946Z,94200.33
2019-05-29T14:40:42.016Z,94196.59
2019-05-29T14:43:13.673Z,94199.73
2019-05-29T14:45:40.562Z,94202.42
2019-05-29T14:48:10.182Z,94210.61
2019-05-29T14:50:38.578Z,94220.31
2019-05-29T14:53:07.407Z,94239.39
2019-05-29T14:55:36.371Z,94252.80
2019-05-29T14:58:05.729Z,94266.95
2019-05-29T15:00:34.174Z,94274.63
2019-05-29T15:03:03.323Z,94275.20
2019-05-29T15:05:31.798Z,94286.77
2019-05-29T15:08:00.201Z,94285.20
2019-05-29T15:10:28.842Z,94284.13
2019-05-29T15:12:58.318Z,94292.49
2019-05-29T15:15:26.977Z,94289.86
2019-05-29T15:17:55.628Z,94296.92
2019-05-29T15:20:24.028Z,94303.47
2019-05-29T15:22:52.683Z,94300.59
2019-05-29T15:25:24.386Z,94301.91
2019-05-29T15:27:52.205Z,94306.09
2019-05-29T15:30:23.319Z,94301.09
2019-05-29T15:32:50.822Z,94300.09
2019-05-29T15:35:20.233Z,94302.45
2019-05-29T15:37:48.682Z,94291.69
2019-05-29T15:40:17.327Z,94297.23
2019-05-29T15:42:45.768Z,94297.23
2019-05-29T15:45:15.955Z,94301.66
2019-05-29T15:47:44.396Z,94297.47
2019-05-29T15:50:14.720Z,94308.49
2019-05-29T15:52:43.731Z,94309.80
2019-05-29T15:55:27.428Z,94316.58
2019-05-29T15:57:42.678Z,94319.22
2019-05-29T16:00:13.576Z,94322.37
2019-05-29T16:02:42.194Z,94323.69
2019-05-29T16:05:13.210Z,94318.42
2019-05-29T16:07:41.980Z,94316.02
2019-05-29T16:10:14.817Z,94314.42
2019-05-29T16:12:42.794Z,94322.24
2019-05-29T16:15:13.106Z,94321.98
2019-05-29T16:17:41.599Z,94332.23
2019-05-29T16:20:12.160Z,94330.37
2019-05-29T16:22:40.722Z,94328.77
2019-05-29T16:25:10.833Z,94323.80
2019-05-29T16:27:39.323Z,94324.84
2019-05-29T16:30:13.630Z,94329.31
2019-05-29T16:32:42.427Z,94330.69
2019-05-29T16:35:13.190Z,94336.69
2019-05-29T16:37:41.754Z,94338.55
2019-05-29T16:40:18.155Z,94344.06
2019-05-29T16:42:46.690Z,94335.45
2019-05-29T16:45:16.331Z,94339.14
2019-05-29T16:47:44.863Z,94342.28
2019-05-29T16:50:15.020Z,94345.95
2019-05-29T16:52:43.505Z,94347.81
2019-05-29T16:55:12.996Z,94343.08
2019-05-29T16:57:41.945Z,94345.44
2019-05-29T17:00:13.547Z,94347.27
2019-05-29T17:02:42.195Z,94345.97
2019-05-29T17:05:11.002Z,94350.95
2019-05-29T17:07:39.370Z,94350.19
2019-05-29T17:10:08.617Z,94353.58
2019-05-29T17:12:36.981Z,94352.83
2019-05-29T17:15:10.605Z,94355.71
2019-05-29T17:17:39.316Z,94356.00
2019-05-29T17:20:08.850Z,94356.77
2019-05-29T17:22:37.500Z,94358.88
2019-05-29T17:25:06.900Z,94361.24
2019-05-29T17:27:35.362Z,94364.38
2019-05-29T17:30:05.290Z,94360.45
2019-05-29T17:32:33.918Z,94362.30
2019-05-29T17:35:02.486Z,94369.62
2019-05-29T17:37:31.035Z,94370.92
2019-05-29T17:39:59.748Z,94374.08
2019-05-29T17:42:28.131Z,94372.77
2019-05-29T17:44:56.525Z,94369.35
2019-05-29T17:47:25.767Z,94371.96
2019-05-29T17:49:54.171Z,94378.77
2019-05-29T17:52:23.836Z,94382.44
2019-05-29T17:54:52.571Z,94382.95
2019-05-29T17:57:21.954Z,94394.22
2019-05-29T17:59:50.670Z,94401.02
2019-05-29T18:02:20.255Z,94405.75
2019-05-29T18:04:48.681Z,94404.95
2019-05-29T18:07:18.290Z,94402.34
2019-05-29T18:09:46.972Z,94408.38
2019-05-29T18:12:15.399Z,94409.94
2019-05-29T18:14:43.771Z,94417.54
2019-05-29T18:17:12.426Z,94417.80
2019-05-29T18:19:40.792Z,94419.64
2019-05-29T18:22:09.201Z,94421.21
2019-05-29T18:24:37.836Z,94426.19
2019-05-29T18:27:06.305Z,94434.30
2019-05-29T18:29:34.686Z,94436.92
2019-05-29T18:32:03.346Z,94442.70
2019-05-29T18:34:31.954Z,94442.95
2019-05-29T18:37:00.672Z,94439.28
2019-05-29T18:39:29.314Z,94443.45
2019-05-29T18:41:57.952Z,94438.77
2019-05-29T18:44:26.963Z,94447.41
2019-05-29T18:46:55.578Z,94446.88
2019-05-29T18:49:24.371Z,94450.53
2019-05-29T18:51:52.919Z,94450.78
2019-05-29T18:54:21.663Z,94455.51
2019-05-29T18:57:13.748Z,94452.09
2019-05-29T18:59:21.483Z,94451.31
2019-05-29T19:01:50.123Z,94459.41
2019-05-29T19:04:18.506Z,94462.30
2019-05-29T19:06:46.897Z,94467.02
2019-05-29T19:09:15.524Z,94464.15
2019-05-29T19:11:43.918Z,94468.07
2019-05-29T19:14:12.296Z,94468.84
2019-05-29T19:16:40.685Z,94472.25
2019-05-29T19:19:09.070Z,94472.50
2019-05-29T19:21:37.465Z,94474.61
2019-05-29T19:24:05.999Z,94471.99
2019-05-29T19:26:36.731Z,94474.86
2019-05-29T19:29:04.871Z,94481.39
2019-05-29T19:31:33.435Z,94487.17
2019-05-29T19:34:02.045Z,94481.41
2019-05-29T19:36:31.764Z,94494.23
2019-05-29T19:39:00.203Z,94497.36
2019-05-29T19:41:28.604Z,94498.93
2019-05-29T19:43:56.991Z,94500.53
2019-05-29T19:46:26.368Z,94501.55
2019-05-29T19:48:54.758Z,94508.88
2019-05-29T19:51:23.153Z,94516.99
2019-05-29T19:53:51.801Z,94517.76
2019-05-29T19:56:20.201Z,94525.61
2019-05-29T19:58:48.582Z,94525.87
2019-05-29T20:01:30.105Z,94528.77
2019-05-29T20:03:47.082Z,94530.05
2019-05-29T20:06:15.737Z,94531.66
2019-05-29T20:08:44.400Z,94528.50
2019-05-29T20:11:12.766Z,94531.38
2019-05-29T20:13:41.417Z,94534.25
2019-05-29T20:16:10.094Z,94533.75
2019-05-29T20:18:38.604Z,94541.08
2019-05-29T20:21:07.212Z,94543.95
2019-05-29T20:23:36.735Z,94545.27
2019-05-29T20:26:05.447Z,94541.84
2019-05-29T20:28:34.286Z,94543.70
2019-05-29T20:31:02.667Z,94551.27
2019-05-29T20:33:32.393Z,94551.27
2019-05-29T20:36:01.126Z,94553.63
2019-05-29T20:38:29.534Z,94551.51
2019-05-29T20:40:58.177Z,94552.02
2019-05-29T20:43:26.592Z,94565.65
2019-05-29T20:45:55.227Z,94563.03
2019-05-29T20:48:23.627Z,94560.41
2019-05-29T20:50:52.015Z,94570.33
2019-05-29T20:53:20.677Z,94568.02
2019-05-29T20:55:49.067Z,94566.70
2019-05-29T20:58:24.633Z,94579.78
2019-05-29T21:00:47.835Z,94574.81
2019-05-29T21:03:16.233Z,94574.55
2019-05-29T21:05:44.626Z,94572.70
2019-05-29T21:08:14.205Z,94574.55
2019-05-29T21:10:43.631Z,94576.63
2019-05-29T21:13:12.015Z,94579.78
2019-05-29T21:15:41.478Z,94577.16
2019-05-29T21:18:10.447Z,94576.89
2019-05-29T21:20:40.367Z,94586.55
2019-05-29T21:23:09.109Z,94592.28
2019-05-29T21:25:38.712Z,94583.92
2019-05-29T21:28:07.400Z,94585.77
2019-05-29T21:30:37.348Z,94590.20
2019-05-29T21:33:06.056Z,94589.69
2019-05-29T21:35:34.443Z,94591.26
2019-05-29T21:38:03.098Z,94595.69
2019-05-29T21:40:31.512Z,94596.48
2019-05-29T21:42:59.895Z,94597.81
2019-05-29T21:45:28.525Z,94600.14
2019-05-29T21:47:56.935Z,94597.28
2019-05-29T21:50:25.565Z,94604.89
2019-05-29T21:52:54.043Z,94604.10
2019-05-29T21:55:22.431Z,94607.25
2019-05-29T21:57:50.832Z,94607.78
2019-05-29T22:00:33.798Z,94601.75
2019-05-29T22:03:02.537Z,94608.27
2019-05-29T22:05:31.178Z,94611.67
2019-05-29T22:07:59.996Z,94615.33
2019-05-29T22:10:28.383Z,94617.95
2019-05-29T22:12:56.940Z,94611.44
2019-05-29T22:15:25.399Z,94614.30
2019-05-29T22:17:54.942Z,94622.67
2019-05-29T22:20:23.648Z,94622.66
2019-05-29T22:22:53.070Z,94620.05
2019-05-29T22:25:21.742Z,94627.87
2019-05-29T22:27:51.211Z,94627.31
2019-05-29T22:30:20.100Z,94625.48
2019-05-29T22:32:48.741Z,94629.41
2019-05-29T22:35:17.388Z,94632.04
2019-05-29T22:37:45.771Z,94629.94
2019-05-29T22:40:14.658Z,94635.92
2019-05-29T22:42:43.051Z,94632.53
2019-05-29T22:45:12.282Z,94633.58
2019-05-29T22:47:40.913Z,94630.97
2019-05-29T22:50:09.854Z,94634.35
2019-05-29T22:52:38.254Z,94632.78
2019-05-29T22:55:07.093Z,94632.53
2019-05-29T22:57:35.734Z,94628.88
2019-05-29T23:00:09.214Z,94630.72
2019-05-29T23:02:37.599Z,94625.48
2019-05-29T23:05:08.475Z,94625.72
2019-05-29T23:07:36.926Z,94625.45
2019-05-29T23:10:08.819Z,94628.61
2019-05-29T23:12:37.459Z,94627.03
2019-05-29T23:15:07.885Z,94627.28
2019-05-29T23:17:36.521Z,94630.13
2019-05-29T23:20:08.379Z,94633.77
2019-05-29T23:22:36.780Z,94631.94
2019-05-29T23:25:06.919Z,94633.77
2019-05-29T23:27:35.973Z,94630.11
2019-05-29T23:30:07.526Z,94631.12
2019-05-29T23:32:35.911Z,94627.97
2019-05-29T23:35:05.551Z,94633.70
2019-05-29T23:37:34.182Z,94630.55
2019-05-29T23:40:03.521Z,94631.86
2019-05-29T23:42:31.924Z,94637.09
2019-05-29T23:45:01.549Z,94641.53
2019-05-29T23:47:30.242Z,94640.47
2019-05-29T23:49:59.692Z,94632.88
2019-05-29T23:52:28.365Z,94635.77
2019-05-29T23:54:57.942Z,94631.02
2019-05-29T23:57:26.584Z,94637.54
